sensor_id;sensor_type;location;lat;lon;timestamp;P1;durP1;ratioP1;P2;durP2;ratioP2
2177;SDS011;1095;50.992;6.798;2023-02-04T00:07:03;19.15;;;5.68;;
2177;SDS011;1095;50.992;6.798;2023-02-04T00:10:04;24.90;;;6.63;;
2177;SDS011;1095;50.992;6.798;2023-02-04T00:12:34;27.50;;;6.00;;
2177;SDS011;1095;50.992;6.798;2023-02-04T00:15:01;26.73;;;5.55;;
2177;SDS011;1095;50.992;6.798;2023-02-04T00:17:28;32.08;;;6.80;;
2177;SDS011;1095;50.992;6.798;2023-02-04T00:20:03;24.70;;;5.72;;
2177;SDS011;1095;50.992;6.798;2023-02-04T00:22:31;24.63;;;5.63;;
2177;SDS011;1095;50.992;6.798;2023-02-04T00:24:58;19.52;;;5.45;;
2177;SDS011;1095;50.992;6.798;2023-02-04T00:27:25;25.27;;;6.68;;
2177;SDS011;1095;50.992;6.798;2023-02-04T00:29:54;28.63;;;7.10;;
2177;SDS011;1095;50.992;6.798;2023-02-04T00:39:21;26.10;;;5.93;;
2177;SDS011;1095;50.992;6.798;2023-02-04T00:41:49;27.25;;;6.38;;
2177;SDS011;1095;50.992;6.798;2023-02-04T00:44:17;25.50;;;5.30;;
2177;SDS011;1095;50.992;6.798;2023-02-04T00:46:54;28.58;;;5.70;;
2177;SDS011;1095;50.992;6.798;2023-02-04T00:49:24;25.73;;;6.20;;
2177;SDS011;1095;50.992;6.798;2023-02-04T00:51:52;29.02;;;5.50;;
2177;SDS011;1095;50.992;6.798;2023-02-04T00:54:19;24.45;;;5.43;;
2177;SDS011;1095;50.992;6.798;2023-02-04T00:56:46;29.15;;;5.63;;
2177;SDS011;1095;50.992;6.798;2023-02-04T00:59:13;24.35;;;5.13;;
2177;SDS011;1095;50.992;6.798;2023-02-04T01:01:39;23.13;;;5.25;;
2177;SDS011;1095;50.992;6.798;2023-02-04T01:04:07;26.48;;;7.78;;
2177;SDS011;1095;50.992;6.798;2023-02-04T01:06:34;24.90;;;5.18;;
2177;SDS011;1095;50.992;6.798;2023-02-04T01:09:01;21.85;;;5.03;;
2177;SDS011;1095;50.992;6.798;2023-02-04T01:11:32;21.90;;;5.60;;
2177;SDS011;1095;50.992;6.798;2023-02-04T01:14:02;25.58;;;5.78;;
2177;SDS011;1095;50.992;6.798;2023-02-04T01:16:29;27.00;;;5.35;;
2177;SDS011;1095;50.992;6.798;2023-02-04T01:18:55;27.90;;;5.65;;
2177;SDS011;1095;50.992;6.798;2023-02-04T01:21:24;29.67;;;5.30;;
2177;SDS011;1095;50.992;6.798;2023-02-04T01:23:52;32.08;;;5.25;;
2177;SDS011;1095;50.992;6.798;2023-02-04T01:26:22;25.52;;;5.18;;
2177;SDS011;1095;50.992;6.798;2023-02-04T01:28:49;20.95;;;5.13;;
2177;SDS011;1095;50.992;6.798;2023-02-04T01:31:16;25.55;;;5.10;;
2177;SDS011;1095;50.992;6.798;2023-02-04T01:33:45;25.40;;;5.40;;
2177;SDS011;1095;50.992;6.798;2023-02-04T01:36:21;16.05;;;5.18;;
2177;SDS011;1095;50.992;6.798;2023-02-04T01:38:51;23.73;;;5.35;;
2177;SDS011;1095;50.992;6.798;2023-02-04T01:41:54;30.23;;;5.55;;
2177;SDS011;1095;50.992;6.798;2023-02-04T01:44:31;24.30;;;4.78;;
2177;SDS011;1095;50.992;6.798;2023-02-04T01:46:58;19.45;;;5.20;;
2177;SDS011;1095;50.992;6.798;2023-02-04T01:49:33;19.65;;;6.22;;
2177;SDS011;1095;50.992;6.798;2023-02-04T01:52:11;19.67;;;5.30;;
2177;SDS011;1095;50.992;6.798;2023-02-04T01:54:47;22.90;;;5.00;;
2177;SDS011;1095;50.992;6.798;2023-02-04T01:57:14;20.08;;;5.13;;
2177;SDS011;1095;50.992;6.798;2023-02-04T01:59:46;21.02;;;4.85;;
2177;SDS011;1095;50.992;6.798;2023-02-04T02:05:17;24.88;;;6.00;;
2177;SDS011;1095;50.992;6.798;2023-02-04T02:07:56;22.88;;;5.35;;
2177;SDS011;1095;50.992;6.798;2023-02-04T02:10:31;21.00;;;5.95;;
2177;SDS011;1095;50.992;6.798;2023-02-04T02:13:05;20.42;;;5.40;;
2177;SDS011;1095;50.992;6.798;2023-02-04T02:15:41;24.88;;;5.88;;
2177;SDS011;1095;50.992;6.798;2023-02-04T02:18:11;25.90;;;4.95;;
2177;SDS011;1095;50.992;6.798;2023-02-04T02:20:38;20.73;;;5.15;;
2177;SDS011;1095;50.992;6.798;2023-02-04T02:23:05;21.60;;;5.65;;
2177;SDS011;1095;50.992;6.798;2023-02-04T02:25:42;28.98;;;5.53;;
2177;SDS011;1095;50.992;6.798;2023-02-04T02:28:11;22.75;;;4.97;;
2177;SDS011;1095;50.992;6.798;2023-02-04T02:30:40;23.58;;;4.85;;
2177;SDS011;1095;50.992;6.798;2023-02-04T02:35:37;19.48;;;4.80;;
2177;SDS011;1095;50.992;6.798;2023-02-04T02:38:07;22.60;;;5.95;;
2177;SDS011;1095;50.992;6.798;2023-02-04T02:40:36;27.27;;;6.65;;
2177;SDS011;1095;50.992;6.798;2023-02-04T02:43:09;22.58;;;5.10;;
2177;SDS011;1095;50.992;6.798;2023-02-04T02:45:40;23.42;;;5.20;;
2177;SDS011;1095;50.992;6.798;2023-02-04T02:50:39;18.08;;;4.07;;
2177;SDS011;1095;50.992;6.798;2023-02-04T02:53:09;21.88;;;5.22;;
2177;SDS011;1095;50.992;6.798;2023-02-04T02:55:36;20.67;;;5.13;;
2177;SDS011;1095;50.992;6.798;2023-02-04T02:58:03;23.73;;;5.90;;
2177;SDS011;1095;50.992;6.798;2023-02-04T03:00:33;21.20;;;4.82;;
2177;SDS011;1095;50.992;6.798;2023-02-04T03:03:00;21.85;;;5.47;;
2177;SDS011;1095;50.992;6.798;2023-02-04T03:05:31;25.13;;;5.40;;
2177;SDS011;1095;50.992;6.798;2023-02-04T03:08:01;19.98;;;4.88;;
2177;SDS011;1095;50.992;6.798;2023-02-04T03:10:28;27.17;;;4.97;;
2177;SDS011;1095;50.992;6.798;2023-02-04T03:12:55;26.98;;;5.70;;
2177;SDS011;1095;50.992;6.798;2023-02-04T03:15:22;25.85;;;5.63;;
2177;SDS011;1095;50.992;6.798;2023-02-04T03:17:50;20.15;;;4.40;;
2177;SDS011;1095;50.992;6.798;2023-02-04T03:20:20;24.23;;;5.43;;
2177;SDS011;1095;50.992;6.798;2023-02-04T03:22:49;18.65;;;4.55;;
2177;SDS011;1095;50.992;6.798;2023-02-04T03:25:15;22.38;;;5.60;;
2177;SDS011;1095;50.992;6.798;2023-02-04T03:27:42;24.70;;;5.47;;
2177;SDS011;1095;50.992;6.798;2023-02-04T03:30:09;16.30;;;4.82;;
2177;SDS011;1095;50.992;6.798;2023-02-04T03:32:36;20.70;;;5.25;;
2177;SDS011;1095;50.992;6.798;2023-02-04T03:35:05;18.58;;;4.65;;
2177;SDS011;1095;50.992;6.798;2023-02-04T03:37:31;22.38;;;5.13;;
2177;SDS011;1095;50.992;6.798;2023-02-04T03:39:58;25.40;;;5.75;;
2177;SDS011;1095;50.992;6.798;2023-02-04T03:42:25;20.05;;;4.72;;
2177;SDS011;1095;50.992;6.798;2023-02-04T03:44:51;17.52;;;5.07;;
2177;SDS011;1095;50.992;6.798;2023-02-04T03:47:18;19.00;;;4.88;;
2177;SDS011;1095;50.992;6.798;2023-02-04T03:49:44;17.20;;;4.70;;
2177;SDS011;1095;50.992;6.798;2023-02-04T03:52:12;18.55;;;5.00;;
2177;SDS011;1095;50.992;6.798;2023-02-04T03:54:39;15.55;;;4.30;;
2177;SDS011;1095;50.992;6.798;2023-02-04T03:57:05;27.02;;;6.38;;
2177;SDS011;1095;50.992;6.798;2023-02-04T03:59:32;23.30;;;5.10;;
2177;SDS011;1095;50.992;6.798;2023-02-04T04:01:59;18.20;;;5.15;;
2177;SDS011;1095;50.992;6.798;2023-02-04T04:04:25;21.52;;;4.65;;
2177;SDS011;1095;50.992;6.798;2023-02-04T04:06:52;23.60;;;5.18;;
2177;SDS011;1095;50.992;6.798;2023-02-04T04:09:21;26.65;;;5.07;;
2177;SDS011;1095;50.992;6.798;2023-02-04T04:11:48;26.55;;;5.07;;
2177;SDS011;1095;50.992;6.798;2023-02-04T04:14:15;18.85;;;5.30;;
2177;SDS011;1095;50.992;6.798;2023-02-04T04:16:41;23.60;;;5.22;;
2177;SDS011;1095;50.992;6.798;2023-02-04T04:19:08;30.98;;;6.38;;
2177;SDS011;1095;50.992;6.798;2023-02-04T04:21:35;21.40;;;5.05;;
2177;SDS011;1095;50.992;6.798;2023-02-04T04:24:01;26.23;;;5.72;;
2177;SDS011;1095;50.992;6.798;2023-02-04T04:26:29;18.30;;;4.82;;
2177;SDS011;1095;50.992;6.798;2023-02-04T04:28:56;23.00;;;5.97;;
2177;SDS011;1095;50.992;6.798;2023-02-04T04:31:23;26.65;;;5.45;;
2177;SDS011;1095;50.992;6.798;2023-02-04T04:33:49;21.23;;;7.10;;
2177;SDS011;1095;50.992;6.798;2023-02-04T04:36:16;22.05;;;4.88;;
2177;SDS011;1095;50.992;6.798;2023-02-04T04:38:42;24.92;;;5.78;;
2177;SDS011;1095;50.992;6.798;2023-02-04T04:41:09;19.35;;;6.00;;
2177;SDS011;1095;50.992;6.798;2023-02-04T04:43:37;24.15;;;5.70;;
2177;SDS011;1095;50.992;6.798;2023-02-04T04:46:03;17.55;;;4.93;;
2177;SDS011;1095;50.992;6.798;2023-02-04T04:48:30;16.85;;;5.68;;
2177;SDS011;1095;50.992;6.798;2023-02-04T04:50:57;16.45;;;5.00;;
2177;SDS011;1095;50.992;6.798;2023-02-04T04:53:23;21.75;;;5.00;;
2177;SDS011;1095;50.992;6.798;2023-02-04T04:55:50;24.48;;;5.20;;
2177;SDS011;1095;50.992;6.798;2023-02-04T04:58:18;22.55;;;6.18;;
2177;SDS011;1095;50.992;6.798;2023-02-04T05:00:45;22.85;;;5.57;;
2177;SDS011;1095;50.992;6.798;2023-02-04T05:03:12;20.85;;;4.97;;
2177;SDS011;1095;50.992;6.798;2023-02-04T05:05:39;25.23;;;5.38;;
2177;SDS011;1095;50.992;6.798;2023-02-04T05:08:05;28.88;;;5.60;;
2177;SDS011;1095;50.992;6.798;2023-02-04T05:10:37;19.08;;;4.68;;
2177;SDS011;1095;50.992;6.798;2023-02-04T05:13:03;24.23;;;5.72;;
2177;SDS011;1095;50.992;6.798;2023-02-04T05:15:30;22.10;;;5.53;;
2177;SDS011;1095;50.992;6.798;2023-02-04T05:17:58;18.95;;;4.45;;
2177;SDS011;1095;50.992;6.798;2023-02-04T05:20:25;31.27;;;6.40;;
2177;SDS011;1095;50.992;6.798;2023-02-04T05:22:51;20.20;;;4.63;;
2177;SDS011;1095;50.992;6.798;2023-02-04T05:25:20;17.75;;;5.10;;
2177;SDS011;1095;50.992;6.798;2023-02-04T05:27:46;25.52;;;5.47;;
2177;SDS011;1095;50.992;6.798;2023-02-04T05:30:13;21.75;;;5.32;;
2177;SDS011;1095;50.992;6.798;2023-02-04T05:32:41;21.05;;;5.57;;
2177;SDS011;1095;50.992;6.798;2023-02-04T05:35:09;26.92;;;6.47;;
2177;SDS011;1095;50.992;6.798;2023-02-04T05:37:35;29.63;;;6.63;;
2177;SDS011;1095;50.992;6.798;2023-02-04T05:40:02;20.83;;;5.65;;
2177;SDS011;1095;50.992;6.798;2023-02-04T05:42:29;21.75;;;5.90;;
2177;SDS011;1095;50.992;6.798;2023-02-04T05:44:56;25.35;;;6.38;;
2177;SDS011;1095;50.992;6.798;2023-02-04T05:47:22;19.52;;;5.43;;
2177;SDS011;1095;50.992;6.798;2023-02-04T05:49:49;25.30;;;5.47;;
2177;SDS011;1095;50.992;6.798;2023-02-04T05:52:17;30.27;;;5.80;;
2177;SDS011;1095;50.992;6.798;2023-02-04T05:54:44;23.63;;;6.15;;
2177;SDS011;1095;50.992;6.798;2023-02-04T05:57:10;21.25;;;4.95;;
2177;SDS011;1095;50.992;6.798;2023-02-04T05:59:37;31.08;;;6.07;;
2177;SDS011;1095;50.992;6.798;2023-02-04T06:02:04;26.58;;;5.53;;
2177;SDS011;1095;50.992;6.798;2023-02-04T06:04:30;28.65;;;5.65;;
2177;SDS011;1095;50.992;6.798;2023-02-04T06:06:57;24.02;;;6.10;;
2177;SDS011;1095;50.992;6.798;2023-02-04T06:09:25;32.40;;;6.78;;
2177;SDS011;1095;50.992;6.798;2023-02-04T06:11:51;21.67;;;5.75;;
2177;SDS011;1095;50.992;6.798;2023-02-04T06:14:18;24.92;;;5.95;;
2177;SDS011;1095;50.992;6.798;2023-02-04T06:16:44;25.98;;;6.60;;
2177;SDS011;1095;50.992;6.798;2023-02-04T06:19:11;25.35;;;6.20;;
2177;SDS011;1095;50.992;6.798;2023-02-04T06:21:38;34.08;;;6.43;;
2177;SDS011;1095;50.992;6.798;2023-02-04T06:24:05;31.08;;;6.53;;
2177;SDS011;1095;50.992;6.798;2023-02-04T06:26:33;28.80;;;6.38;;
2177;SDS011;1095;50.992;6.798;2023-02-04T06:28:59;28.88;;;6.55;;
2177;SDS011;1095;50.992;6.798;2023-02-04T06:31:26;25.35;;;6.43;;
2177;SDS011;1095;50.992;6.798;2023-02-04T06:33:53;28.13;;;7.18;;
2177;SDS011;1095;50.992;6.798;2023-02-04T06:36:19;29.23;;;6.68;;
2177;SDS011;1095;50.992;6.798;2023-02-04T06:38:46;20.17;;;6.85;;
2177;SDS011;1095;50.992;6.798;2023-02-04T06:41:12;27.50;;;6.60;;
2177;SDS011;1095;50.992;6.798;2023-02-04T06:43:40;29.38;;;6.80;;
2177;SDS011;1095;50.992;6.798;2023-02-04T06:46:07;28.17;;;7.18;;
2177;SDS011;1095;50.992;6.798;2023-02-04T06:48:33;28.70;;;7.35;;
2177;SDS011;1095;50.992;6.798;2023-02-04T06:51:00;32.00;;;8.07;;
2177;SDS011;1095;50.992;6.798;2023-02-04T06:53:27;25.20;;;6.43;;
2177;SDS011;1095;50.992;6.798;2023-02-04T06:55:53;30.27;;;7.30;;
2177;SDS011;1095;50.992;6.798;2023-02-04T06:58:20;26.98;;;9.73;;
2177;SDS011;1095;50.992;6.798;2023-02-04T07:00:48;33.13;;;8.50;;
2177;SDS011;1095;50.992;6.798;2023-02-04T07:03:14;31.80;;;8.32;;
2177;SDS011;1095;50.992;6.798;2023-02-04T07:05:44;33.25;;;8.32;;
2177;SDS011;1095;50.992;6.798;2023-02-04T07:08:11;25.55;;;8.93;;
2177;SDS011;1095;50.992;6.798;2023-02-04T07:10:37;24.92;;;8.00;;
2177;SDS011;1095;50.992;6.798;2023-02-04T07:13:04;26.70;;;6.85;;
2177;SDS011;1095;50.992;6.798;2023-02-04T07:15:31;31.42;;;8.80;;
2177;SDS011;1095;50.992;6.798;2023-02-04T07:17:58;30.13;;;7.15;;
2177;SDS011;1095;50.992;6.798;2023-02-04T07:20:25;33.55;;;6.68;;
2177;SDS011;1095;50.992;6.798;2023-02-04T07:22:52;34.63;;;8.00;;
2177;SDS011;1095;50.992;6.798;2023-02-04T07:25:18;29.38;;;7.28;;
2177;SDS011;1095;50.992;6.798;2023-02-04T07:27:45;33.05;;;8.77;;
2177;SDS011;1095;50.992;6.798;2023-02-04T07:30:12;22.67;;;6.72;;
2177;SDS011;1095;50.992;6.798;2023-02-04T07:32:39;29.15;;;7.40;;
2177;SDS011;1095;50.992;6.798;2023-02-04T07:35:08;30.17;;;7.28;;
2177;SDS011;1095;50.992;6.798;2023-02-04T07:37:35;25.35;;;7.10;;
2177;SDS011;1095;50.992;6.798;2023-02-04T07:40:02;27.13;;;7.10;;
2177;SDS011;1095;50.992;6.798;2023-02-04T07:42:29;27.42;;;7.32;;
2177;SDS011;1095;50.992;6.798;2023-02-04T07:45:00;32.17;;;7.60;;
2177;SDS011;1095;50.992;6.798;2023-02-04T07:47:40;26.37;;;7.13;;
2177;SDS011;1095;50.992;6.798;2023-02-04T07:50:10;23.58;;;6.43;;
2177;SDS011;1095;50.992;6.798;2023-02-04T07:52:52;24.02;;;8.18;;
2177;SDS011;1095;50.992;6.798;2023-02-04T07:55:41;30.95;;;7.15;;
2177;SDS011;1095;50.992;6.798;2023-02-04T07:58:16;35.72;;;7.25;;
2177;SDS011;1095;50.992;6.798;2023-02-04T08:00:42;32.80;;;7.40;;
2177;SDS011;1095;50.992;6.798;2023-02-04T08:03:09;26.60;;;7.60;;
2177;SDS011;1095;50.992;6.798;2023-02-04T08:05:37;25.80;;;7.60;;
2177;SDS011;1095;50.992;6.798;2023-02-04T08:08:07;23.42;;;6.88;;
2177;SDS011;1095;50.992;6.798;2023-02-04T08:10:43;33.13;;;7.00;;
2177;SDS011;1095;50.992;6.798;2023-02-04T08:13:20;26.80;;;7.07;;
2177;SDS011;1095;50.992;6.798;2023-02-04T08:15:46;30.08;;;6.90;;
2177;SDS011;1095;50.992;6.798;2023-02-04T08:18:13;27.30;;;8.57;;
2177;SDS011;1095;50.992;6.798;2023-02-04T08:20:41;21.77;;;7.25;;
2177;SDS011;1095;50.992;6.798;2023-02-04T08:23:07;25.08;;;7.05;;
2177;SDS011;1095;50.992;6.798;2023-02-04T08:25:34;32.47;;;8.20;;
2177;SDS011;1095;50.992;6.798;2023-02-04T08:28:01;33.08;;;9.23;;
2177;SDS011;1095;50.992;6.798;2023-02-04T08:30:27;22.45;;;7.85;;
2177;SDS011;1095;50.992;6.798;2023-02-04T08:32:54;29.27;;;9.48;;
2177;SDS011;1095;50.992;6.798;2023-02-04T08:35:20;34.80;;;8.73;;
2177;SDS011;1095;50.992;6.798;2023-02-04T08:37:48;33.38;;;8.25;;
2177;SDS011;1095;50.992;6.798;2023-02-04T08:40:15;37.35;;;8.52;;
2177;SDS011;1095;50.992;6.798;2023-02-04T08:42:42;33.05;;;9.77;;
2177;SDS011;1095;50.992;6.798;2023-02-04T08:45:08;38.65;;;9.18;;
2177;SDS011;1095;50.992;6.798;2023-02-04T08:47:35;33.72;;;10.57;;
2177;SDS011;1095;50.992;6.798;2023-02-04T08:50:02;29.05;;;8.90;;
2177;SDS011;1095;50.992;6.798;2023-02-04T08:52:28;23.92;;;7.13;;
2177;SDS011;1095;50.992;6.798;2023-02-04T08:54:56;36.85;;;11.18;;
2177;SDS011;1095;50.992;6.798;2023-02-04T08:57:23;31.10;;;9.40;;
2177;SDS011;1095;50.992;6.798;2023-02-04T08:59:49;25.50;;;8.13;;
2177;SDS011;1095;50.992;6.798;2023-02-04T09:02:16;38.03;;;10.80;;
2177;SDS011;1095;50.992;6.798;2023-02-04T09:04:43;33.25;;;9.82;;
2177;SDS011;1095;50.992;6.798;2023-02-04T09:07:09;30.15;;;7.25;;
2177;SDS011;1095;50.992;6.798;2023-02-04T09:09:36;26.38;;;8.38;;
2177;SDS011;1095;50.992;6.798;2023-02-04T09:12:04;31.33;;;8.43;;
2177;SDS011;1095;50.992;6.798;2023-02-04T09:14:32;27.33;;;7.95;;
2177;SDS011;1095;50.992;6.798;2023-02-04T09:16:59;31.13;;;8.50;;
2177;SDS011;1095;50.992;6.798;2023-02-04T09:19:26;26.02;;;8.02;;
2177;SDS011;1095;50.992;6.798;2023-02-04T09:21:53;30.20;;;8.65;;
2177;SDS011;1095;50.992;6.798;2023-02-04T09:24:19;25.50;;;7.28;;
2177;SDS011;1095;50.992;6.798;2023-02-04T09:26:47;34.80;;;8.88;;
2177;SDS011;1095;50.992;6.798;2023-02-04T09:29:15;25.77;;;8.45;;
2177;SDS011;1095;50.992;6.798;2023-02-04T09:31:42;34.13;;;9.85;;
2177;SDS011;1095;50.992;6.798;2023-02-04T09:34:08;29.75;;;8.05;;
2177;SDS011;1095;50.992;6.798;2023-02-04T09:36:35;28.13;;;8.57;;
2177;SDS011;1095;50.992;6.798;2023-02-04T09:39:04;50.63;;;10.93;;
2177;SDS011;1095;50.992;6.798;2023-02-04T09:41:33;28.52;;;7.72;;
2177;SDS011;1095;50.992;6.798;2023-02-04T09:44:00;31.80;;;8.57;;
2177;SDS011;1095;50.992;6.798;2023-02-04T09:46:31;27.00;;;8.88;;
2177;SDS011;1095;50.992;6.798;2023-02-04T09:48:58;25.15;;;7.93;;
2177;SDS011;1095;50.992;6.798;2023-02-04T09:51:28;26.92;;;8.73;;
2177;SDS011;1095;50.992;6.798;2023-02-04T09:54:00;32.42;;;10.13;;
2177;SDS011;1095;50.992;6.798;2023-02-04T09:56:30;27.13;;;9.52;;
2177;SDS011;1095;50.992;6.798;2023-02-04T09:58:57;35.50;;;10.75;;
2177;SDS011;1095;50.992;6.798;2023-02-04T10:01:25;33.38;;;10.50;;
2177;SDS011;1095;50.992;6.798;2023-02-04T10:03:54;30.33;;;10.70;;
2177;SDS011;1095;50.992;6.798;2023-02-04T10:06:26;33.40;;;11.55;;
2177;SDS011;1095;50.992;6.798;2023-02-04T10:08:53;32.00;;;11.68;;
2177;SDS011;1095;50.992;6.798;2023-02-04T10:11:20;31.88;;;11.52;;
2177;SDS011;1095;50.992;6.798;2023-02-04T10:13:49;34.53;;;11.48;;
2177;SDS011;1095;50.992;6.798;2023-02-04T10:16:18;37.33;;;11.68;;
2177;SDS011;1095;50.992;6.798;2023-02-04T10:18:47;39.90;;;13.35;;
2177;SDS011;1095;50.992;6.798;2023-02-04T10:21:25;39.88;;;13.02;;
2177;SDS011;1095;50.992;6.798;2023-02-04T10:23:54;41.55;;;15.02;;
2177;SDS011;1095;50.992;6.798;2023-02-04T10:28:57;44.45;;;16.15;;
2177;SDS011;1095;50.992;6.798;2023-02-04T10:31:30;37.80;;;14.15;;
2177;SDS011;1095;50.992;6.798;2023-02-04T10:34:08;39.35;;;14.75;;
2177;SDS011;1095;50.992;6.798;2023-02-04T10:36:39;49.58;;;15.90;;
2177;SDS011;1095;50.992;6.798;2023-02-04T10:39:09;55.83;;;17.15;;
2177;SDS011;1095;50.992;6.798;2023-02-04T10:41:43;48.50;;;16.45;;
2177;SDS011;1095;50.992;6.798;2023-02-04T10:44:11;38.28;;;14.93;;
2177;SDS011;1095;50.992;6.798;2023-02-04T10:46:38;51.90;;;15.77;;
2177;SDS011;1095;50.992;6.798;2023-02-04T10:49:14;46.55;;;15.15;;
2177;SDS011;1095;50.992;6.798;2023-02-04T10:51:44;45.70;;;15.57;;
2177;SDS011;1095;50.992;6.798;2023-02-04T10:54:12;38.67;;;15.98;;
2177;SDS011;1095;50.992;6.798;2023-02-04T10:56:57;49.08;;;15.52;;
2177;SDS011;1095;50.992;6.798;2023-02-04T10:59:25;40.08;;;15.98;;
2177;SDS011;1095;50.992;6.798;2023-02-04T11:01:53;42.38;;;16.58;;
2177;SDS011;1095;50.992;6.798;2023-02-04T11:04:21;46.03;;;18.52;;
2177;SDS011;1095;50.992;6.798;2023-02-04T11:06:49;52.60;;;18.33;;
2177;SDS011;1095;50.992;6.798;2023-02-04T11:09:17;42.28;;;17.20;;
2177;SDS011;1095;50.992;6.798;2023-02-04T11:11:44;48.13;;;19.27;;
2177;SDS011;1095;50.992;6.798;2023-02-04T11:14:21;50.00;;;18.10;;
2177;SDS011;1095;50.992;6.798;2023-02-04T11:16:50;43.78;;;18.83;;
2177;SDS011;1095;50.992;6.798;2023-02-04T11:19:29;46.55;;;17.65;;
2177;SDS011;1095;50.992;6.798;2023-02-04T11:22:07;47.60;;;17.55;;
2177;SDS011;1095;50.992;6.798;2023-02-04T11:24:46;47.33;;;18.38;;
2177;SDS011;1095;50.992;6.798;2023-02-04T11:27:18;47.60;;;18.55;;
2177;SDS011;1095;50.992;6.798;2023-02-04T11:29:46;42.92;;;18.15;;
2177;SDS011;1095;50.992;6.798;2023-02-04T11:35:05;41.15;;;17.52;;
2177;SDS011;1095;50.992;6.798;2023-02-04T11:37:46;39.42;;;15.07;;
2177;SDS011;1095;50.992;6.798;2023-02-04T11:40:22;43.13;;;16.38;;
2177;SDS011;1095;50.992;6.798;2023-02-04T11:42:55;42.58;;;18.45;;
2177;SDS011;1095;50.992;6.798;2023-02-04T11:45:24;45.92;;;17.40;;
2177;SDS011;1095;50.992;6.798;2023-02-04T11:47:55;40.65;;;16.77;;
2177;SDS011;1095;50.992;6.798;2023-02-04T11:50:24;47.58;;;16.00;;
2177;SDS011;1095;50.992;6.798;2023-02-04T11:52:54;47.25;;;16.40;;
2177;SDS011;1095;50.992;6.798;2023-02-04T11:55:21;41.03;;;15.50;;
2177;SDS011;1095;50.992;6.798;2023-02-04T11:57:49;38.90;;;15.93;;
2177;SDS011;1095;50.992;6.798;2023-02-04T12:00:18;39.67;;;16.67;;
2177;SDS011;1095;50.992;6.798;2023-02-04T12:02:46;48.80;;;16.70;;
2177;SDS011;1095;50.992;6.798;2023-02-04T12:05:14;38.95;;;14.15;;
2177;SDS011;1095;50.992;6.798;2023-02-04T12:07:43;39.55;;;15.00;;
2177;SDS011;1095;50.992;6.798;2023-02-04T12:10:12;32.22;;;14.60;;
2177;SDS011;1095;50.992;6.798;2023-02-04T12:12:41;39.67;;;13.35;;
2177;SDS011;1095;50.992;6.798;2023-02-04T12:15:13;44.67;;;13.35;;
2177;SDS011;1095;50.992;6.798;2023-02-04T12:17:43;31.50;;;13.05;;
2177;SDS011;1095;50.992;6.798;2023-02-04T12:20:10;34.55;;;12.32;;
2177;SDS011;1095;50.992;6.798;2023-02-04T12:22:37;35.05;;;12.02;;
2177;SDS011;1095;50.992;6.798;2023-02-04T12:25:04;28.90;;;10.88;;
2177;SDS011;1095;50.992;6.798;2023-02-04T12:27:33;37.20;;;10.48;;
2177;SDS011;1095;50.992;6.798;2023-02-04T12:30:02;30.20;;;10.52;;
2177;SDS011;1095;50.992;6.798;2023-02-04T12:32:29;36.13;;;11.68;;
2177;SDS011;1095;50.992;6.798;2023-02-04T12:34:56;34.97;;;11.40;;
2177;SDS011;1095;50.992;6.798;2023-02-04T12:37:22;32.25;;;10.10;;
2177;SDS011;1095;50.992;6.798;2023-02-04T12:39:49;31.55;;;9.68;;
2177;SDS011;1095;50.992;6.798;2023-02-04T12:42:15;31.77;;;10.27;;
2177;SDS011;1095;50.992;6.798;2023-02-04T12:44:43;32.00;;;10.77;;
2177;SDS011;1095;50.992;6.798;2023-02-04T12:47:10;46.85;;;12.60;;
2177;SDS011;1095;50.992;6.798;2023-02-04T12:49:37;27.63;;;10.00;;
2177;SDS011;1095;50.992;6.798;2023-02-04T12:52:03;31.40;;;9.02;;
2177;SDS011;1095;50.992;6.798;2023-02-04T12:54:30;27.35;;;9.40;;
2177;SDS011;1095;50.992;6.798;2023-02-04T12:56:57;32.72;;;9.63;;
2177;SDS011;1095;50.992;6.798;2023-02-04T12:59:23;35.65;;;9.10;;
2177;SDS011;1095;50.992;6.798;2023-02-04T13:01:51;24.90;;;9.80;;
2177;SDS011;1095;50.992;6.798;2023-02-04T13:04:18;29.35;;;9.70;;
2177;SDS011;1095;50.992;6.798;2023-02-04T13:06:45;32.17;;;9.32;;
2177;SDS011;1095;50.992;6.798;2023-02-04T13:09:11;27.95;;;10.07;;
2177;SDS011;1095;50.992;6.798;2023-02-04T13:11:38;31.02;;;10.38;;
2177;SDS011;1095;50.992;6.798;2023-02-04T13:14:04;33.88;;;9.15;;
2177;SDS011;1095;50.992;6.798;2023-02-04T13:16:31;34.90;;;8.82;;
2177;SDS011;1095;50.992;6.798;2023-02-04T13:18:59;27.85;;;8.60;;
2177;SDS011;1095;50.992;6.798;2023-02-04T13:21:25;28.75;;;8.48;;
2177;SDS011;1095;50.992;6.798;2023-02-04T13:23:52;25.23;;;7.32;;
2177;SDS011;1095;50.992;6.798;2023-02-04T13:26:19;28.58;;;6.93;;
2177;SDS011;1095;50.992;6.798;2023-02-04T13:28:45;27.42;;;6.63;;
2177;SDS011;1095;50.992;6.798;2023-02-04T13:31:12;33.03;;;7.82;;
2177;SDS011;1095;50.992;6.798;2023-02-04T13:33:38;25.88;;;7.95;;
2177;SDS011;1095;50.992;6.798;2023-02-04T13:36:06;29.42;;;7.57;;
2177;SDS011;1095;50.992;6.798;2023-02-04T13:38:33;31.98;;;8.10;;
2177;SDS011;1095;50.992;6.798;2023-02-04T13:41:00;27.35;;;7.80;;
2177;SDS011;1095;50.992;6.798;2023-02-04T13:43:27;38.00;;;7.88;;
2177;SDS011;1095;50.992;6.798;2023-02-04T13:45:53;22.38;;;6.28;;
2177;SDS011;1095;50.992;6.798;2023-02-04T13:48:21;26.50;;;6.22;;
2177;SDS011;1095;50.992;6.798;2023-02-04T13:50:48;24.38;;;6.10;;
2177;SDS011;1095;50.992;6.798;2023-02-04T13:53:17;31.20;;;6.72;;
2177;SDS011;1095;50.992;6.798;2023-02-04T13:55:43;27.17;;;7.22;;
2177;SDS011;1095;50.992;6.798;2023-02-04T13:58:10;26.23;;;6.50;;
2177;SDS011;1095;50.992;6.798;2023-02-04T14:00:37;23.50;;;6.15;;
2177;SDS011;1095;50.992;6.798;2023-02-04T14:03:03;24.25;;;6.72;;
2177;SDS011;1095;50.992;6.798;2023-02-04T14:05:30;27.65;;;6.97;;
2177;SDS011;1095;50.992;6.798;2023-02-04T14:07:56;22.00;;;6.15;;
2177;SDS011;1095;50.992;6.798;2023-02-04T14:10:25;23.92;;;6.18;;
2177;SDS011;1095;50.992;6.798;2023-02-04T14:12:51;23.80;;;6.13;;
2177;SDS011;1095;50.992;6.798;2023-02-04T14:15:18;24.10;;;6.03;;
2177;SDS011;1095;50.992;6.798;2023-02-04T14:17:45;20.30;;;5.55;;
2177;SDS011;1095;50.992;6.798;2023-02-04T14:20:11;23.55;;;5.70;;
2177;SDS011;1095;50.992;6.798;2023-02-04T14:22:38;18.05;;;5.30;;
2177;SDS011;1095;50.992;6.798;2023-02-04T14:25:04;28.58;;;7.03;;
2177;SDS011;1095;50.992;6.798;2023-02-04T14:27:33;21.88;;;5.90;;
2177;SDS011;1095;50.992;6.798;2023-02-04T14:29:59;20.30;;;5.70;;
2177;SDS011;1095;50.992;6.798;2023-02-04T14:32:26;28.05;;;7.05;;
2177;SDS011;1095;50.992;6.798;2023-02-04T14:34:52;25.48;;;6.53;;
2177;SDS011;1095;50.992;6.798;2023-02-04T14:37:19;22.70;;;6.13;;
2177;SDS011;1095;50.992;6.798;2023-02-04T14:39:46;24.92;;;7.38;;
2177;SDS011;1095;50.992;6.798;2023-02-04T14:42:12;22.55;;;5.78;;
2177;SDS011;1095;50.992;6.798;2023-02-04T14:44:40;20.65;;;5.60;;
2177;SDS011;1095;50.992;6.798;2023-02-04T14:47:07;25.98;;;6.38;;
2177;SDS011;1095;50.992;6.798;2023-02-04T14:49:33;27.38;;;7.22;;
2177;SDS011;1095;50.992;6.798;2023-02-04T14:52:02;23.45;;;6.55;;
2177;SDS011;1095;50.992;6.798;2023-02-04T14:54:29;24.85;;;7.82;;
2177;SDS011;1095;50.992;6.798;2023-02-04T14:56:55;27.17;;;7.03;;
2177;SDS011;1095;50.992;6.798;2023-02-04T14:59:22;21.65;;;6.47;;
2177;SDS011;1095;50.992;6.798;2023-02-04T15:01:50;22.13;;;5.72;;
2177;SDS011;1095;50.992;6.798;2023-02-04T15:04:16;26.48;;;5.43;;
2177;SDS011;1095;50.992;6.798;2023-02-04T15:06:43;26.55;;;6.00;;
2177;SDS011;1095;50.992;6.798;2023-02-04T15:09:10;23.70;;;5.65;;
2177;SDS011;1095;50.992;6.798;2023-02-04T15:11:37;28.85;;;5.90;;
2177;SDS011;1095;50.992;6.798;2023-02-04T15:14:04;23.30;;;5.90;;
2177;SDS011;1095;50.992;6.798;2023-02-04T15:16:30;21.52;;;5.68;;
2177;SDS011;1095;50.992;6.798;2023-02-04T15:18:58;39.75;;;7.32;;
2177;SDS011;1095;50.992;6.798;2023-02-04T15:21:25;20.77;;;6.63;;
2177;SDS011;1095;50.992;6.798;2023-02-04T15:23:51;26.88;;;8.48;;
2177;SDS011;1095;50.992;6.798;2023-02-04T15:26:18;25.35;;;7.20;;
2177;SDS011;1095;50.992;6.798;2023-02-04T15:28:45;26.45;;;7.20;;
2177;SDS011;1095;50.992;6.798;2023-02-04T15:31:11;25.00;;;6.88;;